Text analysis for Lukas (allforone)

Return to profile of Lukas (allforone)

View texts not yet raced by Lukas (allforone)

Sorted by best race

Rank Text Best WPM Overall Difficulty Relative Speed Text Length Races Average WPM Last race
1. They often wish that people would just once and for all work... 44.76 1.0258 0.1303 98 1 44.76 2017-10-02
2. So can we be friends sweetly before the mystery ends? I love... 42.72 0.9515 0.1675 183 1 42.72 2017-10-02
3. We were the people who were not in the papers. We lived in t... 41.09 1.0536 0.0549 171 1 41.09 2017-10-02
4. Perhaps it might be better, Mr. President, if you were more ... 40.58 0.9217 0.1214 137 1 40.58 2017-10-02
5. I search the faces of the gods... for ways to please you, to... 40.47 1.0497 0.0389 264 1 40.47 2017-10-02
6. I read this thing the other day about how when you hear that... 40.45 1.0574 0.0345 225 1 40.45 2017-10-02
7. You know, that might be the answer - to act boastfully about... 39.50 1.0125 0.0442 138 1 39.50 2017-10-02
8. Perhaps love is like a window, perhaps an open door. It invi... 39.20 1.0630 -0.0105 209 1 39.20 2017-10-02
9. Far from being accidental details, the properties of nature'... 38.99 1.0062 0.0452 138 1 38.99 2017-10-02
10. Contrary to the feminist cant, there are many things we can ... 38.72 1.0412 -0.0025 225 1 38.72 2017-10-02
11. Here comes the rain again, falling from the stars. Drenched ... 38.20 1.0176 0.0084 180 1 38.20 2017-10-02
12. With gene therapy, we can remove those genes which we know m... 37.36 1.0369 -0.0239 195 1 37.36 2017-10-02
13. There's a teleportation grid that runs throughout Halo. That... 37.20 0.9504 0.0160 251 1 37.20 2017-10-02
14. "He needs the victory," Dan says, "and I need the beer." I'm... 37.14 0.8243 0.1342 145 1 37.14 2017-10-02
15. Typing competitions provided another test of the Qwerty keyb... 37.07 0.8811 0.1171 239 1 37.07 2017-10-02
16. Hofstadter's Law: It always takes longer than you expect, ev... 36.81 0.7801 0.1778 107 1 36.81 2017-10-02
17. If someone gives you an opinion and says, "Hey, you look so ... 36.71 1.0068 -0.0133 312 1 36.71 2017-10-02
18. Remember before when I was talking about smelly garbage stan... 36.47 1.0095 -0.0241 295 1 36.47 2017-10-02
19. I don't want to talk to you no more, you empty-headed animal... 36.24 0.9220 0.0201 178 1 36.24 2017-10-02
20. I'd ask you about love, you'd probably quote me a sonnet. Bu... 36.19 1.0086 -0.0392 224 1 36.19 2017-10-02
21. We are the world, we are the children. We are the ones who m... 36.08 1.0338 -0.0683 213 1 36.08 2017-10-02
22. There is some love that will not go away. You're here, there... 35.91 1.0886 -0.1271 169 1 35.91 2017-10-02
23. Burning my bridges and smashing my mirrors, turning to see i... 35.88 1.0388 -0.0452 243 1 35.88 2017-10-02
24. Other kids' games are all such a bore! They've got to have r... 35.88 0.8804 0.0535 252 1 35.88 2017-10-02
25. For once I can say, "This is mine you can't take it." As lon... 35.87 0.9606 -0.0422 147 1 35.87 2017-10-02
26. Do you know what they call a Quarter-pounder with cheese in ... 35.60 0.9233 0.0224 168 1 35.60 2017-10-02
27. I will not play at tug o' war. I'd rather play at hug o' war... 35.52 0.8453 0.0936 227 1 35.52 2017-10-02
28. Indonesia is a nation of islands - more than seventeen thous... 35.06 0.9212 0.0213 323 1 35.06 2017-10-02
29. No, that is what I'm trying to tell you. He is still a child... 35.03 1.0493 -0.1112 306 1 35.03 2017-10-02
30. This little droid. I think he's searching for his former mas... 35.00 0.9236 -0.0170 232 1 35.00 2017-10-02
31. Give us this day our daily discount outlet merchandise. Rais... 34.94 0.8746 0.0192 106 1 34.94 2017-10-02
32. Who is Keyser Soze? He is supposed to be Turkish. Some say h... 34.88 0.8154 0.1206 193 1 34.88 2017-10-02
33. When a great office is vacant, either by death or disgrace (... 34.61 0.9300 -0.0250 271 1 34.61 2017-10-02
34. My name is Turkish. Funny name for an Englishman, I know. My... 34.57 1.0131 -0.0909 225 1 34.57 2017-10-02
35. "Can you fly this plane and land it?" "Surely you can't be s... 34.38 0.7130 0.1621 110 1 34.38 2017-10-02
36. The wind was bitterly cold. The snow swirled, blurring his v... 34.19 1.0005 -0.0791 298 1 34.19 2017-10-02
37. She belonged to a different age, but being so entire, so com... 32.71 0.9981 -0.1078 252 1 32.71 2017-10-02
38. Yes, there were times, I'm sure you knew, when I bit off mor... 31.67 1.0482 -0.2006 151 1 31.67 2017-10-02
39. I used to hate writing assignments, but now I enjoy them. I ... 31.56 0.9242 -0.1094 244 1 31.56 2017-10-02